Flight Track Log - Related Links

Times and Time Zones

All times are in EDT time to prevent confusion due to time zone crossing. See the TMC808 flight status page for this flight to view local times or setup timezone preferences in your user account.

Time Position Orientation Groundspeed Altitude Reporting Facility
EDT Latitude Longitude Course Direction KTS MPH feet Rate Location/Type
Fri 01:20:11 PM 25.8006 -80.2631 82° East 164 189 900  Level Miami Center
Fri 01:20:54 PM 25.8056 -80.2217 82° East 198 228 2,600 2,423 Climbing Miami Center
Fri 01:21:55 PM 25.8072 -80.1569 88° East 222 255 5,100 2,016 Climbing Miami Center
Fri 01:23:02 PM 25.8664 -80.1264 25° Northeast 269 310 6,900 1,875 Climbing Miami Center
Fri 01:24:03 PM 25.9172 -80.1831 315° West 271 312 9,100 2,297 Climbing Miami Center
Fri 01:25:10 PM 25.9636 -80.2606 304° West 281 323 11,800 2,315 Climbing Miami Center
Fri 01:26:10 PM 26.0033 -80.3381 300° West 286 329 14,000 2,050 Climbing Miami Center
Fri 01:27:10 PM 26.0475 -80.4158 302° West 286 329 15,900 1,850 Climbing Miami Center
Fri 01:28:10 PM 26.0894 -80.5003 299° West 299 344 17,700 1,800 Climbing Miami Center
Fri 01:29:10 PM 26.1331 -80.5847 300° West 309 356 19,500 1,850 Climbing Miami Center
Fri 01:30:10 PM 26.1750 -80.6625 301° West 322 371 21,400 1,750 Climbing Miami Center
Fri 01:31:10 PM 26.2186 -80.7494 299° West 327 376 23,000 1,550 Climbing Miami Center
Fri 01:32:10 PM 26.2750 -80.8303 308° West 327 376 24,500 1,550 Climbing Miami Center
Fri 01:33:10 PM 26.3542 -80.9117 317° Northwest 339 390 26,100 1,450 Climbing Miami Center
Fri 01:34:10 PM 26.4233 -80.9742 321° Northwest 351 404 27,400 1,450 Climbing Miami Center
Fri 01:35:10 PM 26.5242 -81.0289 334° Northwest 357 411 29,000 1,450 Climbing Miami Center
Fri 01:36:10 PM 26.6147 -81.0761 335° Northwest 362 417 30,300 1,300 Climbing Miami Center
Fri 01:37:10 PM 26.7072 -81.1261 334° Northwest 355 409 31,600 1,050 Climbing Miami Center
Fri 01:38:10 PM 26.7894 -81.1686 335° Northwest 355 409 32,400 750 Climbing Miami Center
Fri 01:39:10 PM 26.8839 -81.2186 335° Northwest 360 414 33,100 750 Climbing Miami Center
Fri 01:40:10 PM 26.9908 -81.2761 334° Northwest 377 434 33,900 750 Climbing Miami Center
Fri 01:41:10 PM 27.0875 -81.3264 335° Northwest 385 443 34,600 700 Climbing Miami Center
Fri 01:42:10 PM 27.1881 -81.3794 335° Northwest 390 449 35,300 700 Climbing Miami Center
Fri 01:43:10 PM 27.2764 -81.4272 334° Northwest 395 455 36,000 700 Climbing Miami Center
Fri 01:44:10 PM 27.3725 -81.4894 330° Northwest 395 455 36,700 700 Climbing Miami Center
Fri 01:45:10 PM 27.4744 -81.5614 328° Northwest 395 455 37,400 650 Climbing Miami Center
Fri 01:46:10 PM 27.5686 -81.6192 331° Northwest 395 455 38,000 300 Climbing Miami Center
Fri 01:47:10 PM 27.6644 -81.6842 329° Northwest 395 455 38,000  Level Miami Center
Fri 01:49:04 PM 27.8428 -81.7989 330° Northwest 406 467 38,000  Level Jacksonville Center
Fri 01:50:04 PM 27.9497 -81.8753 328° Northwest 418 481 38,000  Level Jacksonville Center
Fri 01:51:04 PM 28.0464 -81.9542 324° Northwest 418 481 38,000  Level Jacksonville Center
Fri 01:52:04 PM 28.1408 -82.0311 324° Northwest 423 487 38,000  Level Jacksonville Center
Fri 01:53:04 PM 28.2331 -82.1103 323° Northwest 423 487 38,000  Level Jacksonville Center
Fri 01:54:04 PM 28.3275 -82.1875 324° Northwest 423 487 38,000  Level Jacksonville Center
Fri 01:55:04 PM 28.4239 -82.2669 324° Northwest 423 487 38,000  Level Jacksonville Center
Fri 01:56:04 PM 28.5181 -82.3444 324° Northwest 423 487 38,000  Level Jacksonville Center
Fri 01:57:04 PM 28.6122 -82.4219 324° Northwest 423 487 38,000  Level Jacksonville Center
Fri 01:58:04 PM 28.7003 -82.4972 323° Northwest 410 472 38,000  Level Jacksonville Center
Fri 01:59:04 PM 28.7944 -82.5728 325° Northwest 405 466 38,000  Level Jacksonville Center
Fri 02:00:04 PM 28.8864 -82.6508 323° Northwest 412 474 38,000  Level Jacksonville Center
Fri 02:01:04 PM 28.9783 -82.7289 323° Northwest 412 474 38,000  Level Jacksonville Center
Fri 02:02:04 PM 29.0744 -82.8069 325° Northwest 412 474 38,000  Level Jacksonville Center
Fri 02:03:04 PM 29.1642 -82.8831 323° Northwest 412 474 38,000  Level Jacksonville Center
Fri 02:04:04 PM 29.2478 -82.9758 316° Northwest 412 474 38,000  Level Jacksonville Center
Fri 02:05:04 PM 29.3122 -83.0856 304° West 412 474 38,000  Level Jacksonville Center
Fri 02:06:04 PM 29.3808 -83.1953 306° West 418 481 38,000  Level Jacksonville Center
Fri 02:07:04 PM 29.4350 -83.2836 305° West 423 487 38,000 -50 Level Jacksonville Center
Fri 02:08:04 PM 29.5181 -83.4200 305° West 433 498 37,900  Descending Jacksonville Center
Fri 02:09:04 PM 29.5864 -83.5303 305° West 433 498 38,000 50 Climbing Jacksonville Center
Fri 02:10:04 PM 29.6525 -83.6406 305° West 428 493 38,000  Level Jacksonville Center
Fri 02:11:04 PM 29.7186 -83.7511 305° West 423 487 38,000  Level Jacksonville Center
Fri 02:12:04 PM 29.7828 -83.8569 305° West 418 481 38,000  Level Jacksonville Center
Fri 02:13:04 PM 29.8486 -83.9678 304° West 418 481 38,000  Level Jacksonville Center
Fri 02:14:04 PM 29.9167 -84.0739 307° West 418 481 38,000  Level Jacksonville Center
Fri 02:15:04 PM 29.9658 -84.1633 302° West 423 487 38,000  Level Jacksonville Center
Fri 02:16:04 PM 30.0356 -84.2817 304° West 418 481 38,000  Level Jacksonville Center
Fri 02:17:04 PM 30.0989 -84.3981 302° West 418 481 38,000 -50 Level Jacksonville Center
Fri 02:18:04 PM 30.1603 -84.5117 302° West 418 481 37,900  Descending Jacksonville Center
Fri 02:19:04 PM 30.2233 -84.6331 301° West 424 488 38,000 50 Climbing Jacksonville Center
Fri 02:20:04 PM 30.2864 -84.7497 302° West 429 494 38,000  Level Jacksonville Center
Fri 02:21:04 PM 30.3494 -84.8689 302° West 429 494 38,000  Level Jacksonville Center
Fri 02:22:04 PM 30.4142 -84.9906 302° West 434 499 38,000  Level Jacksonville Center
Fri 02:23:04 PM 30.4850 -85.1247 302° West 443 510 38,000  Level Jacksonville Center
Fri 02:24:04 PM 30.5475 -85.2467 301° West 443 510 38,000  Level Jacksonville Center
Fri 02:25:04 PM 30.5803 -85.3850 285° West 443 510 38,000  Level Jacksonville Center
Fri 02:26:04 PM 30.6069 -85.5233 283° West 443 510 38,000  Level Jacksonville Center
Fri 02:27:04 PM 30.6308 -85.6639 281° West 438 504 38,000  Level Jacksonville Center
Fri 02:28:04 PM 30.6550 -85.8072 281° West 438 504 38,000 -50 Level Jacksonville Center
Fri 02:29:04 PM 30.6789 -85.9456 281° West 448 516 37,900  Descending Jacksonville Center
Fri 02:30:04 PM 30.7025 -86.0864 281° West 448 516 38,000 50 Climbing Jacksonville Center
Fri 02:31:04 PM 30.7281 -86.2275 282° West 448 516 38,000  Level Jacksonville Center
Fri 02:32:04 PM 30.7556 -86.3686 283° West 448 516 38,000  Level Jacksonville Center
Fri 02:33:04 PM 30.7894 -86.5053 286° West 448 516 38,000  Level Jacksonville Center
Fri 02:34:04 PM 30.8208 -86.6444 285° West 448 516 38,000  Level Jacksonville Center
Fri 02:35:04 PM 30.8544 -86.7786 286° West 448 516 38,000  Level Jacksonville Center
Fri 02:37:29 PM 30.9286 -87.1006 285° West 442 509 38,000  Level Houston Center
Fri 02:38:31 PM 30.9631 -87.2386 286° West 445 512 38,000  Level Houston Center
Fri 02:39:33 PM 31.0003 -87.3731 288° West 439 505 38,000  Level Houston Center
Fri 02:40:35 PM 31.0400 -87.5372 286° West 438 504 38,000  Level Houston Center
Fri 02:41:38 PM 31.0708 -87.6750 285° West 441 507 38,000  Level Houston Center
Fri 02:42:40 PM 31.1056 -87.7986 288° West 443 510 38,000  Level Houston Center
Fri 02:43:42 PM 31.1683 -87.9536 295° West 440 506 38,000 -48 Level Houston Center
Fri 02:44:44 PM 31.2300 -88.0786 300° West 444 511 37,900 194 Descending Houston Center
Fri 02:45:46 PM 31.2933 -88.2017 301° West 442 509 38,400 484 Climbing Houston Center
Fri 02:46:48 PM 31.3581 -88.3314 300° West 440 506 38,900 528 Climbing Houston Center
Fri 02:47:51 PM 31.4183 -88.4522 300° West 431 496 39,500 480 Climbing Houston Center
Fri 02:48:53 PM 31.4778 -88.5719 300° West 430 495 39,900 242 Climbing Houston Center
Fri 02:49:55 PM 31.5500 -88.7161 300° West 427 491 40,000 48 Climbing Houston Center
Fri 02:50:57 PM 31.6092 -88.8367 300° West 428 493 40,000  Level Houston Center
Fri 02:51:59 PM 31.6708 -88.9572 301° West 432 497 40,000  Level Houston Center
Fri 02:53:01 PM 31.7297 -89.0797 299° West 432 497 40,000  Level Houston Center
Fri 02:54:04 PM 31.7906 -89.1994 301° West 429 494 40,000  Level Houston Center
Fri 02:55:05 PM 31.8489 -89.3217 299° West 430 495 40,000  Level Houston Center
Fri 02:56:02 PM 31.9150 -89.4592 300° West 434 499 40,000  Level Memphis Center
Fri 02:57:02 PM 31.9722 -89.5786 299° West 434 499 40,000  Level Memphis Center
Fri 02:58:02 PM 32.0333 -89.7006 301° West 434 499 40,000  Level Memphis Center
Fri 02:59:02 PM 32.0903 -89.8178 300° West 429 494 40,000  Level Memphis Center
Fri 03:00:02 PM 32.1472 -89.9353 300° West 419 482 40,000  Level Memphis Center
Fri 03:01:02 PM 32.2061 -90.0553 300° West 414 476 40,000  Level Memphis Center
Fri 03:02:02 PM 32.2606 -90.1731 299° West 414 476 40,000  Level Memphis Center
Fri 03:03:02 PM 32.3150 -90.2908 299° West 414 476 40,000  Level Memphis Center
Fri 03:04:02 PM 32.3714 -90.4064 300° West 414 476 40,000  Level Memphis Center
Fri 03:05:02 PM 32.4275 -90.5272 299° West 414 476 40,000  Level Memphis Center
Fri 03:06:02 PM 32.4836 -90.6431 300° West 414 476 40,000  Level Memphis Center
Fri 03:07:02 PM 32.5397 -90.7589 300° West 414 476 40,000  Level Memphis Center
Fri 03:08:02 PM 32.5936 -90.8775 298° West 414 476 40,000  Level Memphis Center
Fri 03:09:02 PM 32.6494 -90.9964 299° West 414 476 40,000  Level Memphis Center
Fri 03:10:43 PM 32.7394 -91.1828 300° West 419 482 40,000  Level Fort Worth Center
Fri 03:11:43 PM 32.7978 -91.3047 300° West 413 475 40,000  Level Fort Worth Center
Fri 03:12:43 PM 32.8511 -91.4197 299° West 408 470 40,000  Level Fort Worth Center
Fri 03:13:43 PM 32.9119 -91.5542 298° West 413 475 40,000  Level Fort Worth Center
Fri 03:14:43 PM 32.9694 -91.6742 300° West 413 475 40,000  Level Fort Worth Center
Fri 03:15:43 PM 33.0136 -91.7706 299° West 413 475 40,000  Level Fort Worth Center
Fri 03:16:43 PM 33.0756 -91.9003 300° West 418 481 40,000  Level Fort Worth Center
Fri 03:17:43 PM 33.1308 -92.0183 299° West 418 481 40,000  Level Fort Worth Center
Fri 03:18:43 PM 33.1819 -92.1394 297° West 413 475 40,000  Level Fort Worth Center
Fri 03:19:43 PM 33.2389 -92.2553 300° West 413 475 40,000  Level Fort Worth Center
Fri 03:20:43 PM 33.2917 -92.3739 298° West 413 475 40,000  Level Fort Worth Center
Fri 03:21:43 PM 33.3422 -92.4878 298° West 402 463 40,000  Level Fort Worth Center
Fri 03:22:43 PM 33.3947 -92.6069 298° West 402 463 40,000  Level Fort Worth Center
Fri 03:23:43 PM 33.4472 -92.7258 298° West 402 463 40,000  Level Fort Worth Center
Fri 03:24:43 PM 33.4997 -92.8475 297° West 402 463 40,000  Level Fort Worth Center
Fri 03:25:43 PM 33.5542 -92.9669 299° West 402 463 40,000  Level Fort Worth Center
Fri 03:26:43 PM 33.6086 -93.0889 298° West 407 468 40,000  Level Fort Worth Center
Fri 03:27:43 PM 33.6628 -93.2111 298° West 407 468 40,000  Level Fort Worth Center
Fri 03:28:43 PM 33.7167 -93.3283 299° West 407 468 40,000  Level Fort Worth Center
Fri 03:29:44 PM 33.7686 -93.4508 297° West 407 468 40,000  Level Fort Worth Center
Fri 03:30:43 PM 33.8272 -93.5881 297° West 413 475 40,000  Level Fort Worth Center
Fri 03:31:43 PM 33.8831 -93.7108 299° West 413 475 40,000  Level Fort Worth Center
Fri 03:32:43 PM 33.9367 -93.8336 298° West 418 481 40,000  Level Fort Worth Center
Fri 03:33:43 PM 33.9858 -93.9544 296° West 418 481 40,000  Level Fort Worth Center
Fri 03:34:43 PM 34.0414 -94.0800 298° West 418 481 40,000  Level Fort Worth Center
Fri 03:35:43 PM 34.0928 -94.2033 297° West 418 481 40,000  Level Fort Worth Center
Fri 03:36:43 PM 34.1458 -94.3269 297° West 418 481 40,000  Level Fort Worth Center
Fri 03:37:43 PM 34.1967 -94.4481 297° West 418 481 40,000  Level Fort Worth Center
Fri 03:38:43 PM 34.2497 -94.5744 297° West 418 481 40,000  Level Fort Worth Center
Fri 03:39:43 PM 34.3006 -94.6958 297° West 418 481 40,000  Level Fort Worth Center
Fri 03:40:43 PM 34.3531 -94.8200 297° West 418 481 40,000  Level Fort Worth Center
Fri 03:41:43 PM 34.4058 -94.9417 298° West 418 481 40,000  Level Fort Worth Center
Fri 03:42:43 PM 34.4561 -95.0661 296° West 418 481 40,000  Level Fort Worth Center
Fri 03:43:43 PM 34.5061 -95.1858 297° West 413 475 40,000  Level Fort Worth Center
Fri 03:44:43 PM 34.5564 -95.3081 297° West 408 470 40,000  Level Fort Worth Center
Fri 03:45:43 PM 34.6083 -95.4331 297° West 408 470 40,000  Level Fort Worth Center
Fri 03:46:43 PM 34.6539 -95.5431 297° West 408 470 40,000  Level Fort Worth Center
Fri 03:47:43 PM 34.6994 -95.6658 294° West 408 470 40,000  Level Fort Worth Center
Fri 03:48:43 PM 34.7492 -95.7886 296° West 403 464 40,000  Level Fort Worth Center
Fri 03:49:43 PM 34.7986 -95.9117 296° West 403 464 40,000  Level Fort Worth Center
Fri 03:50:43 PM 34.8522 -96.0344 298° West 403 464 40,000  Level Fort Worth Center
Fri 03:51:43 PM 34.9014 -96.1578 296° West 403 464 40,000  Level Fort Worth Center
Fri 03:52:44 PM 34.9506 -96.2811 296° West 403 464 40,000  Level Fort Worth Center
Fri 03:53:43 PM 35.0017 -96.4047 297° West 403 464 40,000  Level Fort Worth Center
Fri 03:54:43 PM 35.0506 -96.5258 296° West 403 464 40,000  Level Fort Worth Center
Fri 03:55:43 PM 35.0994 -96.6497 296° West 403 464 40,000  Level Fort Worth Center
Fri 03:56:43 PM 35.1461 -96.7711 295° West 403 464 40,000  Level Fort Worth Center
Fri 03:57:43 PM 35.1944 -96.8903 296° West 403 464 40,000  Level Fort Worth Center
Fri 03:58:43 PM 35.2428 -97.0119 296° West 403 464 40,000  Level Fort Worth Center
Fri 03:59:43 PM 35.2892 -97.1311 296° West 398 458 40,000  Level Fort Worth Center
Fri 04:00:43 PM 35.3456 -97.2583 299° West 405 466 40,000  Level Fort Worth Center
Fri 04:01:43 PM 35.3875 -97.3831 292° West 405 466 40,000  Level Fort Worth Center
Fri 04:02:43 PM 35.4436 -97.5258 296° West 405 466 40,000  Level Fort Worth Center
Fri 04:04:22 PM 35.5128 -97.6961 297° West 399 459 40,000  Level Albuquerque Center
Fri 04:05:24 PM 35.5694 -97.8444 295° West 399 459 40,000  Level Albuquerque Center
Fri 04:06:26 PM 35.6189 -97.9681 296° West 401 461 40,000  Level Albuquerque Center
Fri 04:07:28 PM 35.6644 -98.0917 294° West 399 459 40,000  Level Albuquerque Center
Fri 04:08:30 PM 35.7119 -98.2178 295° West 403 464 40,000  Level Albuquerque Center
Fri 04:09:32 PM 35.7611 -98.3408 296° West 401 461 40,000  Level Albuquerque Center
Fri 04:10:33 PM 35.8058 -98.4672 294° West 404 465 40,000  Level Albuquerque Center
Fri 04:11:35 PM 35.8536 -98.5928 295° West 404 465 40,000  Level Albuquerque Center
Fri 04:12:37 PM 35.9092 -98.7428 295° West 401 461 40,000  Level Albuquerque Center
Fri 04:13:39 PM 35.9569 -98.8697 295° West 405 466 40,000  Level Albuquerque Center
Fri 04:14:41 PM 36.0019 -98.9900 295° West 405 466 40,000  Level Albuquerque Center
Fri 04:16:00 PM 36.0547 -99.1374 294° West  Level FlightAware Approximate
Fri 04:16:45 PM 36.0953 -99.2436 294° West 405 466 40,000  Level Albuquerque Center
Fri 04:17:47 PM 36.1511 -99.3931 295° West 408 470 40,000  Level Albuquerque Center
Fri 04:18:49 PM 36.1953 -99.5181 294° West 402 463 40,000  Level Albuquerque Center
Fri 04:19:51 PM 36.2411 -99.6428 295° West 399 459 40,000  Level Albuquerque Center
Fri 04:20:53 PM 36.2864 -99.7686 294° West 399 459 40,000  Level Albuquerque Center
Fri 04:21:54 PM 36.3322 -99.8953 294° West 401 461 40,000  Level Albuquerque Center
Fri 04:22:56 PM 36.3781 -100.0211 294° West 401 461 40,000  Level Albuquerque Center
Fri 04:23:58 PM 36.4319 -100.1736 294° West 401 461 40,000  Level Albuquerque Center
Fri 04:25:00 PM 36.4761 -100.3011 293° West 401 461 40,000  Level Albuquerque Center
Fri 04:26:02 PM 36.5253 -100.4339 295° West 399 459 40,000  Level Albuquerque Center
Fri 04:27:04 PM 36.5681 -100.5564 294° West 401 461 40,000  Level Albuquerque Center
Fri 04:28:06 PM 36.6097 -100.6789 293° West 401 461 40,000  Level Albuquerque Center
Fri 04:29:08 PM 36.6592 -100.8208 294° West 400 460 40,000  Level Albuquerque Center
Fri 04:30:10 PM 36.7025 -100.9417 294° West 399 459 40,000  Level Albuquerque Center
Fri 04:31:23 PM 36.7583 -101.1047 293° West 399 459 40,000  Level Kansas City Center
Fri 04:32:25 PM 36.8006 -101.2272 293° West 400 460 40,000  Level Kansas City Center
Fri 04:33:27 PM 36.8667 -101.3589 302° West 400 460 40,000  Level Kansas City Center
Fri 04:34:29 PM 36.9219 -101.4719 301° West 398 458 40,000  Level Kansas City Center
Fri 04:35:31 PM 36.9881 -101.6014 303° West 396 456 40,000  Level Kansas City Center
Fri 04:36:33 PM 37.0444 -101.7158 302° West 399 459 40,000  Level Kansas City Center
Fri 04:37:35 PM 37.1111 -101.8464 303° West 399 459 40,000  Level Kansas City Center
Fri 04:38:37 PM 37.1853 -101.9392 315° West 397 457 40,000  Level Kansas City Center
Fri 04:39:39 PM 37.2817 -102.0364 321° Northwest 398 458 40,000  Level Kansas City Center
Fri 04:40:41 PM 37.3647 -102.1183 322° Northwest 396 456 40,000  Level Kansas City Center
Fri 04:41:43 PM 37.4475 -102.2031 321° Northwest 398 458 40,000  Level Kansas City Center
Fri 04:42:45 PM 37.5450 -102.3008 322° Northwest 399 459 40,000  Level Kansas City Center
Fri 04:43:47 PM 37.6267 -102.3858 321° Northwest 399 459 40,000  Level Kansas City Center
Fri 04:44:26 PM 37.6833 -102.4408 322° Northwest 400 460 40,000  Level Denver Center
Fri 04:45:28 PM 37.7825 -102.5428 321° Northwest 398 458 40,000  Level Denver Center
Fri 04:46:30 PM 37.8631 -102.6281 320° Northwest 396 456 40,000  Level Denver Center
Fri 04:47:32 PM 37.9581 -102.7286 320° Northwest 398 458 40,000  Level Denver Center
Fri 04:48:35 PM 38.0364 -102.8114 320° Northwest 397 457 40,000  Level Denver Center
Fri 04:49:37 PM 38.1311 -102.9125 320° Northwest 398 458 40,000  Level Denver Center
Fri 04:50:39 PM 38.2119 -102.9989 320° Northwest 395 455 40,000 -194 Level Denver Center
Fri 04:51:41 PM 38.3069 -103.0994 320° Northwest 397 457 39,600 -629 Descending Denver Center
Fri 04:52:43 PM 38.3881 -103.1869 320° Northwest 398 458 38,700 -774 Descending Denver Center
Fri 04:53:45 PM 38.4839 -103.2892 320° Northwest 401 461 38,000 -435 Descending Denver Center
Fri 04:54:47 PM 38.5633 -103.3758 320° Northwest 394 453 37,800 -629 Descending Denver Center
Fri 04:55:49 PM 38.6583 -103.4781 320° Northwest 396 456 36,700 -1,016 Descending Denver Center
Fri 04:56:51 PM 38.7394 -103.5667 320° Northwest 400 460 35,700 -968 Descending Denver Center
Fri 04:57:53 PM 38.8208 -103.6550 320° Northwest 403 464 34,700 -823 Descending Denver Center
Fri 04:58:55 PM 38.9147 -103.7581 320° Northwest 399 459 34,000 -339 Descending Denver Center
Fri 04:59:57 PM 38.9986 -103.8511 319° Northwest 410 472 34,000  Level Denver Center
Fri 05:00:59 PM 39.0933 -103.9547 320° Northwest 404 465 34,000  Level Denver Center
Fri 05:02:01 PM 39.1758 -104.0464 319° Northwest 407 468 34,000  Level Denver Center
Fri 05:03:03 PM 39.2728 -104.1544 319° Northwest 420 483 34,000  Level Denver Center
Fri 05:04:06 PM 39.3647 -104.2558 320° Northwest 405 466 34,000  Level Denver Center
Fri 05:05:08 PM 39.4514 -104.3533 319° Northwest 412 474 34,000  Level Denver Center
Fri 05:06:10 PM 39.5358 -104.4497 319° Northwest 403 464 34,000  Level Denver Center
Fri 05:07:12 PM 39.6206 -104.5650 314° West 409 471 34,000  Level Denver Center
Fri 05:08:14 PM 39.6619 -104.7025 291° West 412 474 34,000  Level Denver Center
Fri 05:09:16 PM 39.6642 -104.8661 271° West 420 483 34,000  Level Denver Center
Fri 05:10:18 PM 39.6492 -105.0172 263° West 421 484 34,000  Level Denver Center
Fri 05:11:20 PM 39.6331 -105.1644 262° West 406 467 34,000 -290 Level Denver Center
Fri 05:12:22 PM 39.6183 -105.3189 263° West 402 463 33,400 -1,065 Descending Denver Center
Fri 05:13:24 PM 39.6017 -105.4625 261° West 410 472 31,800 -1,645 Descending Denver Center
Fri 05:14:26 PM 39.5839 -105.6175 262° West 405 466 30,000 -1,742 Descending Denver Center
Fri 05:15:28 PM 39.5675 -105.7642 262° West 414 476 28,200 -1,452 Descending Denver Center
Fri 05:16:30 PM 39.5569 -105.8811 263° West 368 423 27,000 -1,306 Descending Denver Center
Fri 05:17:32 PM 39.5372 -106.0472 261° West 388 447 25,500 -1,742 Descending Denver Center
Fri 05:18:34 PM 39.5236 -106.1772 262° West 367 422 23,400 -1,968 Descending Denver Center
Fri 05:19:37 PM 39.5097 -106.3019 262° West 351 404 21,400 -1,632 Descending Denver Center
Fri 05:20:39 PM 39.4953 -106.4211 261° West 339 390 20,000 -677 Descending Denver Center
Fri 05:21:41 PM 39.4800 -106.5539 262° West 330 380 20,000 -581 Level Denver Center
Fri 05:22:43 PM 39.4669 -106.6639 261° West 324 373 18,800 -1,113 Descending Denver Center
Fri 05:23:45 PM 39.4514 -106.7822 260° West 301 346 17,700 -968 Descending Denver Center
Fri 05:24:47 PM 39.4467 -106.8681 266° West 249 287 16,800 -1,306 Descending Denver Center
Fri 05:25:49 PM 39.4486 -106.9392 272° West 212 244 15,000 -1,984 Descending Denver Center
Fri 05:26:51 PM 39.3961 -106.9825 213° Southwest 196 226 12,700 -1,790 Descending Denver Center
Fri 05:27:53 PM 39.3514 -106.9608 159° South 183 211 11,300 -1,403 Descending Denver Center
Fri 05:28:55 PM 39.3100 -106.9297 150° Southeast 177 204 9,800 -1,355 Descending Denver Center
Fri 05:29:57 PM 39.2731 -106.8858 137° Southeast 174 200 8,500 -1,258 Descending Denver Center
Fri 05:31:00 PM 39.2167 -106.8667 180° South  Level FlightAware Approximate

Login

Don't have an account? Register now (free) for customized features, flight alerts, and more!